createdAt,value
2022-10-17T00:00:27.242Z,97843.84
2022-10-17T00:03:29.363Z,97859.75
2022-10-17T00:06:31.412Z,97862.41
2022-10-17T00:09:33.442Z,97867.50
2022-10-17T00:12:35.571Z,97867.38
2022-10-17T00:15:37.643Z,97873.34
2022-10-17T00:18:39.699Z,97864.22
2022-10-17T00:21:41.734Z,97853.25
2022-10-17T00:24:43.774Z,97847.13
2022-10-17T00:27:45.809Z,97850.16
2022-10-17T00:30:58.021Z,97839.50
2022-10-17T00:34:00.100Z,97842.88
2022-10-17T00:37:04.026Z,97847.06
2022-10-17T00:40:07.289Z,97844.88
2022-10-17T00:43:18.605Z,97812.56
2022-10-17T00:46:20.978Z,97804.28
2022-10-17T00:49:23.856Z,97798.72
2022-10-17T00:52:27.657Z,97801.88
2022-10-17T00:55:35.997Z,97788.56
2022-10-17T00:58:38.061Z,97794.63
2022-10-17T01:01:41.776Z,97789.50
2022-10-17T01:04:46.823Z,97808.13
2022-10-17T01:07:49.458Z,97805.50
2022-10-17T01:11:17.312Z,97795.88
2022-10-17T01:14:55.962Z,97778.06
2022-10-17T01:18:15.151Z,97774.25
2022-10-17T01:21:39.343Z,97779.78
2022-10-17T01:25:03.329Z,97776.63
2022-10-17T01:28:22.001Z,97765.72
2022-10-17T01:31:26.219Z,97759.38
2022-10-17T01:34:36.230Z,97760.16
2022-10-17T01:38:05.466Z,97754.91
2022-10-17T01:41:32.310Z,97758.31
2022-10-17T01:45:00.283Z,97729.78
2022-10-17T01:48:07.416Z,97739.75
2022-10-17T01:51:25.103Z,97747.56
2022-10-17T01:54:44.664Z,97729.56
2022-10-17T01:57:52.997Z,97731.16
2022-10-17T02:00:55.047Z,97750.25
2022-10-17T02:03:57.429Z,97748.34
2022-10-17T02:07:08.338Z,97756.88
2022-10-17T02:10:16.210Z,97759.00
2022-10-17T02:13:29.963Z,97762.25
2022-10-17T02:16:59.062Z,97759.84
2022-10-17T02:20:24.372Z,97743.94
2022-10-17T02:23:44.907Z,97753.53
2022-10-17T02:26:57.429Z,97759.13
2022-10-17T02:30:06.541Z,97763.88
2022-10-17T02:33:19.426Z,97780.59
2022-10-17T02:36:24.698Z,97776.59
2022-10-17T02:39:28.042Z,97797.78
2022-10-17T02:42:32.143Z,97775.22
2022-10-17T02:45:36.136Z,97774.78
2022-10-17T02:48:45.979Z,97782.47
2022-10-17T02:52:10.750Z,97774.22
2022-10-17T02:55:22.470Z,97778.72
2022-10-17T02:58:30.442Z,97784.56
2022-10-17T03:01:32.590Z,97784.31
2022-10-17T03:04:34.814Z,97782.75
2022-10-17T03:07:36.848Z,97790.44
2022-10-17T03:10:38.866Z,97780.31
2022-10-17T03:13:41.528Z,97773.69
2022-10-17T03:16:43.854Z,97772.09
2022-10-17T03:19:45.951Z,97795.47
2022-10-17T03:22:48.022Z,97782.47
2022-10-17T03:25:50.173Z,97781.16
2022-10-17T03:28:54.496Z,97791.50
2022-10-17T03:31:58.069Z,97782.75
2022-10-17T03:35:00.669Z,97786.19
2022-10-17T03:38:02.966Z,97792.56
2022-10-17T03:41:06.313Z,97780.34
2022-10-17T03:44:08.397Z,97784.06
2022-10-17T03:47:13.363Z,97775.03
2022-10-17T03:50:16.588Z,97778.19
2022-10-17T03:53:19.454Z,97798.38
2022-10-17T03:56:23.519Z,97789.59
2022-10-17T03:59:36.817Z,97797.31
2022-10-17T04:02:45.015Z,97802.31
2022-10-17T04:05:53.158Z,97806.88
2022-10-17T04:08:55.242Z,97812.72
2022-10-17T04:12:01.987Z,97825.19
2022-10-17T04:15:06.965Z,97823.88
2022-10-17T04:18:10.342Z,97825.94
2022-10-17T04:21:12.972Z,97834.38
2022-10-17T04:24:15.874Z,97833.66
2022-10-17T04:27:21.561Z,97827.56
2022-10-17T04:30:23.597Z,97840.28
2022-10-17T04:33:25.902Z,97851.09
2022-10-17T04:36:28.010Z,97856.41
2022-10-17T04:39:30.136Z,97852.66
2022-10-17T04:42:33.325Z,97846.06
2022-10-17T04:45:35.585Z,97849.47
2022-10-17T04:48:39.602Z,97859.31
2022-10-17T04:51:41.655Z,97869.38
2022-10-17T04:54:56.369Z,97862.47
2022-10-17T04:57:58.409Z,97866.66
2022-10-17T05:01:04.162Z,97881.06
2022-10-17T05:04:06.911Z,97888.16
2022-10-17T05:07:09.023Z,97892.72
2022-10-17T05:10:44.599Z,97890.88
2022-10-17T05:13:51.683Z,97903.59
2022-10-17T05:16:54.067Z,97896.16
2022-10-17T05:19:56.313Z,97903.28
2022-10-17T05:23:01.982Z,97895.03
2022-10-17T05:26:09.206Z,97897.75
2022-10-17T05:29:11.322Z,97895.56
2022-10-17T05:32:18.282Z,97899.28
2022-10-17T05:35:20.938Z,97905.88
2022-10-17T05:38:23.252Z,97902.72
2022-10-17T05:41:25.387Z,97915.06
2022-10-17T05:44:28.012Z,97905.03
2022-10-17T05:47:33.846Z,97916.72
2022-10-17T05:50:36.464Z,97918.53
2022-10-17T05:53:44.359Z,97907.44
2022-10-17T05:56:53.414Z,97912.69
2022-10-17T05:59:57.197Z,97930.16
2022-10-17T06:02:59.317Z,97926.03
2022-10-17T06:06:09.630Z,97934.44
2022-10-17T06:09:13.802Z,97934.41
2022-10-17T06:12:19.425Z,97943.41
2022-10-17T06:15:22.090Z,97947.03
2022-10-17T06:18:30.874Z,97954.41
2022-10-17T06:21:36.499Z,97949.47
2022-10-17T06:24:44.518Z,97942.88
2022-10-17T06:27:47.743Z,97933.91
2022-10-17T06:30:50.045Z,97939.59
2022-10-17T06:33:52.122Z,97962.16
2022-10-17T06:36:54.477Z,97976.69
2022-10-17T06:39:56.726Z,97977.91
2022-10-17T06:42:58.922Z,97969.41
2022-10-17T06:46:21.186Z,97984.56
2022-10-17T06:49:34.308Z,97976.19
2022-10-17T06:52:51.988Z,97984.72
2022-10-17T06:56:12.386Z,97988.91
2022-10-17T06:59:32.740Z,97999.03
2022-10-17T07:02:40.286Z,98011.78
2022-10-17T07:05:42.365Z,97999.31
2022-10-17T07:08:45.186Z,98011.75
2022-10-17T07:11:49.915Z,98026.47
2022-10-17T07:14:53.746Z,98022.78
2022-10-17T07:17:55.894Z,98022.75
2022-10-17T07:20:58.070Z,98034.56
2022-10-17T07:24:00.850Z,98034.66
2022-10-17T07:27:03.252Z,98036.88
2022-10-17T07:30:06.308Z,98031.50
2022-10-17T07:33:12.062Z,98029.25
2022-10-17T07:36:14.317Z,98028.34
2022-10-17T07:39:16.554Z,98046.28
2022-10-17T07:42:18.642Z,98052.94
2022-10-17T07:45:20.826Z,98044.97
2022-10-17T07:48:23.821Z,98043.41
2022-10-17T07:51:26.902Z,98060.88
2022-10-17T07:54:29.327Z,98074.09
2022-10-17T07:57:31.428Z,98063.84
2022-10-17T08:00:33.541Z,98070.78
2022-10-17T08:03:35.624Z,98075.34
2022-10-17T08:06:37.867Z,98089.41
2022-10-17T08:09:39.939Z,98086.00
2022-10-17T08:12:42.130Z,98093.16
2022-10-17T08:15:44.450Z,98095.72
2022-10-17T08:18:46.495Z,98099.13
2022-10-17T08:21:50.088Z,98103.97
2022-10-17T08:24:52.173Z,98125.44
2022-10-17T08:27:54.299Z,98108.75
2022-10-17T08:31:07.542Z,98120.63
2022-10-17T08:34:09.610Z,98131.59
2022-10-17T08:37:13.803Z,98134.41
2022-10-17T08:40:26.336Z,98161.47
2022-10-17T08:44:03.754Z,98144.03
2022-10-17T08:47:38.984Z,98155.78
2022-10-17T08:50:54.322Z,98153.91
2022-10-17T08:54:03.045Z,98180.44
2022-10-17T08:57:05.057Z,98182.09
2022-10-17T09:00:20.026Z,98176.84
2022-10-17T09:03:39.999Z,98185.91
2022-10-17T09:07:22.871Z,98186.50
2022-10-17T09:10:42.791Z,98181.16
2022-10-17T09:14:09.269Z,98176.34
2022-10-17T09:17:49.738Z,98177.72
2022-10-17T09:21:36.613Z,98193.19
2022-10-17T09:25:00.086Z,98197.69
2022-10-17T09:28:09.783Z,98189.69
2022-10-17T09:31:27.115Z,98197.75
2022-10-17T09:34:31.181Z,98202.53
2022-10-17T09:37:33.526Z,98200.94
2022-10-17T09:40:35.873Z,98206.81
2022-10-17T09:43:39.669Z,98207.34
2022-10-17T09:46:41.741Z,98204.13
2022-10-17T09:49:46.202Z,98208.41
2022-10-17T09:52:49.418Z,98212.13
2022-10-17T09:55:58.883Z,98199.63
2022-10-17T09:59:00.906Z,98215.88
2022-10-17T10:02:25.054Z,98228.38
2022-10-17T10:05:27.156Z,98221.72
2022-10-17T10:08:31.689Z,98212.66
2022-10-17T10:11:46.005Z,98268.06
2022-10-17T10:14:49.761Z,98244.09
2022-10-17T10:17:54.249Z,98254.47
2022-10-17T10:21:10.978Z,98249.16
2022-10-17T10:24:13.577Z,98224.38
2022-10-17T10:27:17.223Z,98248.88
2022-10-17T10:30:29.935Z,98232.63
2022-10-17T10:33:33.860Z,98251.53
2022-10-17T10:36:51.727Z,98276.59
2022-10-17T10:39:56.108Z,98273.59
2022-10-17T10:43:04.786Z,98254.06
2022-10-17T10:46:21.258Z,98288.53
2022-10-17T10:49:30.814Z,98275.41
2022-10-17T10:53:13.044Z,98281.84
2022-10-17T10:56:41.098Z,98289.34
2022-10-17T10:59:56.655Z,98288.00
2022-10-17T11:03:21.894Z,98282.41
2022-10-17T11:06:29.966Z,98286.75
2022-10-17T11:09:55.034Z,98306.81
2022-10-17T11:13:04.914Z,98274.19
2022-10-17T11:16:39.931Z,98273.69
2022-10-17T11:20:09.138Z,98314.97
2022-10-17T11:23:21.760Z,98311.06
2022-10-17T11:26:31.752Z,98337.16
2022-10-17T11:29:38.164Z,98332.88
2022-10-17T11:32:53.892Z,98321.19
2022-10-17T11:36:00.326Z,98304.34
2022-10-17T11:39:20.838Z,98312.78
2022-10-17T11:42:41.714Z,98319.44
2022-10-17T11:45:52.294Z,98321.22
2022-10-17T11:49:10.846Z,98418.09
2022-10-17T11:53:02.646Z,98374.03
2022-10-17T11:56:05.122Z,98338.22
2022-10-17T11:59:29.855Z,98414.56
2022-10-17T12:03:16.913Z,98303.97
2022-10-17T12:06:42.792Z,98332.09
2022-10-17T12:10:09.210Z,98346.75
2022-10-17T12:13:29.333Z,98321.22
2022-10-17T12:16:34.058Z,98353.41
2022-10-17T12:19:37.375Z,98481.00
2022-10-17T12:22:39.455Z,98400.31
2022-10-17T12:25:50.639Z,98429.53
2022-10-17T12:28:52.872Z,98362.19
2022-10-17T12:31:55.001Z,98359.03
2022-10-17T12:34:57.461Z,98412.84
2022-10-17T12:38:20.788Z,98357.28
2022-10-17T12:41:41.405Z,98407.28
2022-10-17T12:44:44.815Z,98418.00
2022-10-17T12:47:47.755Z,98445.78
2022-10-17T12:51:34.878Z,98425.97
2022-10-17T12:54:24.310Z,98402.06
2022-10-17T12:57:40.856Z,98478.00
2022-10-17T13:01:19.380Z,98470.19
2022-10-17T13:04:19.037Z,98518.31
2022-10-17T13:07:22.189Z,98476.00
2022-10-17T13:13:49.517Z,98456.44
2022-10-17T13:16:52.548Z,98437.28
2022-10-17T13:19:54.903Z,98423.34
2022-10-17T13:22:57.326Z,98442.56
2022-10-17T13:26:21.691Z,98428.38
2022-10-17T13:29:25.795Z,98442.22
2022-10-17T13:32:37.437Z,98430.66
2022-10-17T13:35:59.398Z,98449.03
2022-10-17T13:39:12.442Z,98445.34
2022-10-17T13:42:26.219Z,98447.06
2022-10-17T13:45:37.303Z,98424.47
2022-10-17T13:48:39.437Z,98440.34
2022-10-17T13:51:49.981Z,98466.06
2022-10-17T13:54:53.197Z,98458.72
2022-10-17T13:57:55.320Z,98480.47
2022-10-17T14:00:57.432Z,98457.50
2022-10-17T14:04:09.515Z,98465.19
2022-10-17T14:07:58.155Z,98539.97
2022-10-17T14:10:57.810Z,98485.09
2022-10-17T14:14:00.935Z,98495.63
2022-10-17T14:17:03.012Z,98500.50
2022-10-17T14:23:39.506Z,98527.97
2022-10-17T14:27:00.061Z,98512.88
2022-10-17T14:30:51.501Z,98525.22
2022-10-17T14:33:51.144Z,98536.88
2022-10-17T14:36:53.586Z,98565.31
2022-10-17T14:39:55.796Z,98532.44
2022-10-17T14:43:00.150Z,98532.53
2022-10-17T14:46:02.386Z,98558.84
2022-10-17T14:49:08.206Z,98555.91
2022-10-17T14:52:30.668Z,98603.75
2022-10-17T14:55:35.078Z,98563.69
2022-10-17T14:58:37.201Z,98585.78
2022-10-17T15:01:39.269Z,98598.69
2022-10-17T15:04:41.784Z,98627.00
2022-10-17T15:07:43.923Z,98599.59
2022-10-17T15:10:47.069Z,98625.19
2022-10-17T15:13:49.143Z,98626.31
2022-10-17T15:16:51.206Z,98652.44
2022-10-17T15:19:53.343Z,98623.78
2022-10-17T15:22:56.769Z,98632.25
2022-10-17T15:25:58.946Z,98625.50
2022-10-17T15:29:01.316Z,98666.00
2022-10-17T15:32:03.473Z,98626.53
2022-10-17T15:35:06.123Z,98635.09
2022-10-17T15:38:09.201Z,98635.25
2022-10-17T15:41:11.670Z,98695.41
2022-10-17T15:44:13.833Z,98637.13
2022-10-17T15:47:34.522Z,98633.13
2022-10-17T15:50:36.785Z,98636.09
2022-10-17T15:53:38.933Z,98685.22
2022-10-17T15:56:41.957Z,98659.97
2022-10-17T15:59:46.824Z,98671.78
2022-10-17T16:02:49.467Z,98660.31
2022-10-17T16:05:51.609Z,98686.72
2022-10-17T16:08:53.678Z,98723.75
2022-10-17T16:11:55.746Z,98703.28
2022-10-17T16:14:57.822Z,98662.97
2022-10-17T16:18:01.772Z,98664.03
2022-10-17T16:21:06.477Z,98710.75
2022-10-17T16:24:13.222Z,98694.25
2022-10-17T16:27:15.696Z,98691.59
2022-10-17T16:30:18.032Z,98676.50
2022-10-17T16:33:20.151Z,98720.78
2022-10-17T16:36:22.397Z,98676.53
2022-10-17T16:39:24.473Z,98645.72
2022-10-17T16:42:27.114Z,98737.03
2022-10-17T16:45:29.270Z,98719.94
2022-10-17T16:48:31.359Z,98769.41
2022-10-17T16:51:36.601Z,98732.72
2022-10-17T16:54:38.696Z,98748.34
2022-10-17T17:00:50.231Z,98756.84
2022-10-17T17:03:52.951Z,98750.00
2022-10-17T17:06:55.068Z,98726.84
2022-10-17T17:09:57.116Z,98756.75
2022-10-17T17:13:01.137Z,98780.50
2022-10-17T17:16:24.199Z,98827.28
2022-10-17T17:19:26.273Z,98772.47
2022-10-17T17:22:28.358Z,98757.81
2022-10-17T17:25:30.415Z,98814.00
2022-10-17T17:28:33.582Z,98798.19
2022-10-17T17:31:35.953Z,98799.00
2022-10-17T17:34:38.422Z,98782.34
2022-10-17T17:37:40.414Z,98808.44
2022-10-17T17:40:50.887Z,98782.81
2022-10-17T17:43:53.390Z,98773.81
2022-10-17T17:46:55.443Z,98788.28
2022-10-17T17:49:57.475Z,98789.16
2022-10-17T17:52:59.498Z,98794.47
2022-10-17T17:56:08.330Z,98817.78
2022-10-17T17:59:11.705Z,98850.44
2022-10-17T18:02:13.877Z,98820.31
2022-10-17T18:05:16.078Z,98807.97
2022-10-17T18:08:18.170Z,98825.84
2022-10-17T18:11:22.077Z,98816.19
2022-10-17T18:14:25.539Z,98834.25
2022-10-17T18:17:27.801Z,98870.97
2022-10-17T18:20:30.032Z,98843.00
2022-10-17T18:23:32.083Z,98836.09
2022-10-17T18:26:34.591Z,98856.13
2022-10-17T18:29:36.663Z,98890.16
2022-10-17T18:32:38.758Z,98878.41
2022-10-17T18:35:40.802Z,98850.97
2022-10-17T18:38:43.200Z,98875.56
2022-10-17T18:41:45.255Z,98947.56
2022-10-17T18:44:48.097Z,98898.47
2022-10-17T18:47:52.676Z,98936.63
2022-10-17T18:50:54.708Z,98934.84
2022-10-17T18:53:58.719Z,98913.88
2022-10-17T18:57:00.904Z,98930.13
2022-10-17T19:00:03.968Z,98935.66
2022-10-17T19:03:06.103Z,98930.00
2022-10-17T19:06:09.451Z,98963.56
2022-10-17T19:09:12.691Z,99001.69
2022-10-17T19:12:14.828Z,98994.69
2022-10-17T19:15:16.942Z,99004.88
2022-10-17T19:18:18.996Z,99005.53
2022-10-17T19:21:22.216Z,99016.75
2022-10-17T19:24:26.704Z,99038.53
2022-10-17T19:27:29.140Z,99039.00
2022-10-17T19:30:31.397Z,99039.13
2022-10-17T19:33:33.581Z,99054.00
2022-10-17T19:36:35.780Z,99069.38
2022-10-17T19:39:37.919Z,99076.50
2022-10-17T19:42:40.079Z,99083.75
2022-10-17T19:45:42.131Z,99092.31
2022-10-17T19:48:44.304Z,99098.28
2022-10-17T19:51:46.487Z,99096.63
2022-10-17T19:54:48.535Z,99102.13
2022-10-17T19:57:50.565Z,99120.16
2022-10-17T20:00:57.854Z,99117.03
2022-10-17T20:03:59.901Z,99121.56
2022-10-17T20:07:02.060Z,99113.28
2022-10-17T20:10:04.736Z,99120.44
2022-10-17T20:13:06.876Z,99109.03
2022-10-17T20:16:11.850Z,99118.22
2022-10-17T20:19:14.068Z,99127.13
2022-10-17T20:22:16.138Z,99117.78
2022-10-17T20:25:18.202Z,99118.34
2022-10-17T20:28:20.227Z,99120.31
2022-10-17T20:31:22.422Z,99109.94
2022-10-17T20:34:24.587Z,99116.63
2022-10-17T20:37:26.903Z,99116.44
2022-10-17T20:40:35.098Z,99121.78
2022-10-17T20:43:38.146Z,99138.94
2022-10-17T20:46:48.504Z,99130.19
2022-10-17T20:49:59.631Z,99139.41
2022-10-17T20:53:31.464Z,99145.56
2022-10-17T20:56:27.086Z,99130.34
2022-10-17T20:59:29.421Z,99162.34
2022-10-17T21:02:32.183Z,99169.09
2022-10-17T21:05:40.456Z,99169.56
2022-10-17T21:08:42.723Z,99165.97
2022-10-17T21:11:44.756Z,99155.56
2022-10-17T21:14:46.835Z,99156.97
2022-10-17T21:17:48.874Z,99163.88
2022-10-17T21:20:50.933Z,99189.38
2022-10-17T21:23:55.389Z,99160.31
2022-10-17T21:26:57.632Z,99150.94
2022-10-17T21:29:59.709Z,99162.56
2022-10-17T21:33:01.776Z,99176.69
2022-10-17T21:36:04.396Z,99182.81
2022-10-17T21:42:13.585Z,99202.09
2022-10-17T21:45:25.104Z,99213.22
2022-10-17T21:48:27.808Z,99232.41
2022-10-17T21:51:29.940Z,99216.31
2022-10-17T21:54:32.041Z,99231.00
2022-10-17T21:57:34.092Z,99218.97
2022-10-17T22:00:36.156Z,99230.03
2022-10-17T22:03:44.132Z,99234.03
2022-10-17T22:06:51.246Z,99239.03
2022-10-17T22:09:53.424Z,99246.75
2022-10-17T22:12:55.475Z,99245.09
2022-10-17T22:16:05.604Z,99255.56
2022-10-17T22:19:08.070Z,99259.63
2022-10-17T22:22:10.118Z,99280.75
2022-10-17T22:25:12.133Z,99275.06
2022-10-17T22:28:14.199Z,99282.53
2022-10-17T22:31:16.238Z,99282.03
2022-10-17T22:34:18.546Z,99302.13
2022-10-17T22:37:20.606Z,99296.25
2022-10-17T22:40:22.668Z,99308.91
2022-10-17T22:43:24.730Z,99302.13
2022-10-17T22:46:26.889Z,99315.00
2022-10-17T22:49:28.943Z,99319.50
2022-10-17T22:52:31.365Z,99332.19
2022-10-17T22:55:33.677Z,99342.84
2022-10-17T22:58:36.142Z,99358.91
2022-10-17T23:01:38.311Z,99366.06
2022-10-17T23:04:41.392Z,99376.59
2022-10-17T23:07:43.422Z,99383.81
2022-10-17T23:10:46.234Z,99387.88
2022-10-17T23:13:48.441Z,99398.19
2022-10-17T23:16:50.512Z,99393.88
2022-10-17T23:19:55.499Z,99420.28
2022-10-17T23:22:59.798Z,99421.69
2022-10-17T23:26:12.995Z,99422.06
2022-10-17T23:29:15.031Z,99438.94
2022-10-17T23:32:19.879Z,99429.44
2022-10-17T23:35:21.972Z,99423.16
2022-10-17T23:38:24.026Z,99411.16
2022-10-17T23:41:26.213Z,99423.94
2022-10-17T23:44:28.222Z,99421.81
2022-10-17T23:47:31.310Z,99425.38
2022-10-17T23:50:33.707Z,99444.03
2022-10-17T23:53:37.222Z,99447.53
2022-10-17T23:56:39.280Z,99459.25
2022-10-17T23:59:41.379Z,99471.78
